createdAt,value
2017-12-03T00:00:52.488Z,101512.48
2017-12-03T00:01:58.745Z,101505.23
2017-12-03T00:03:04.413Z,101510.39
2017-12-03T00:04:11.997Z,101504.25
2017-12-03T00:05:17.858Z,101506.86
2017-12-03T00:06:24.474Z,101506.02
2017-12-03T00:07:32.818Z,101506.07
2017-12-03T00:08:38.475Z,101505.16
2017-12-03T00:09:44.172Z,101505.16
2017-12-03T00:10:49.884Z,101501.28
2017-12-03T00:11:56.579Z,101499.53
2017-12-03T00:13:02.224Z,101508.13
2017-12-03T00:14:08.559Z,101504.70
2017-12-03T00:15:14.659Z,101508.16
2017-12-03T00:16:20.342Z,101499.05
2017-12-03T00:17:26.049Z,101499.53
2017-12-03T00:18:31.714Z,101500.83
2017-12-03T00:19:37.376Z,101497.81
2017-12-03T00:20:43.073Z,101493.13
2017-12-03T00:21:49.323Z,101492.66
2017-12-03T00:22:55.052Z,101499.16
2017-12-03T00:24:00.692Z,101496.16
2017-12-03T00:25:06.488Z,101495.27
2017-12-03T00:26:12.142Z,101500.47
2017-12-03T00:27:17.814Z,101499.49
2017-12-03T00:28:23.515Z,101496.53
2017-12-03T00:29:29.150Z,101499.20
2017-12-03T00:30:35.718Z,101498.37
2017-12-03T00:31:41.397Z,101500.56
2017-12-03T00:32:48.028Z,101501.86
2017-12-03T00:33:53.710Z,101496.22
2017-12-03T00:34:59.343Z,101499.23
2017-12-03T00:36:05.011Z,101498.76
2017-12-03T00:37:10.697Z,101500.88
2017-12-03T00:38:17.161Z,101497.87
2017-12-03T00:39:22.887Z,101493.59
2017-12-03T00:40:28.610Z,101490.16
2017-12-03T00:41:34.243Z,101495.76
2017-12-03T00:42:40.225Z,101494.05
2017-12-03T00:43:45.881Z,101497.02
2017-12-03T00:44:54.828Z,101487.99
2017-12-03T00:46:00.567Z,101483.30
2017-12-03T00:47:06.268Z,101485.81
2017-12-03T00:48:13.942Z,101491.44
2017-12-03T00:49:19.590Z,101485.00
2017-12-03T00:50:25.273Z,101487.17
2017-12-03T00:51:30.946Z,101489.73
2017-12-03T00:52:38.139Z,101488.84
2017-12-03T00:53:43.799Z,101483.65
2017-12-03T00:54:49.505Z,101484.95
2017-12-03T00:55:55.217Z,101486.66
2017-12-03T00:57:01.244Z,101487.13
2017-12-03T00:58:09.257Z,101491.02
2017-12-03T00:59:17.732Z,101485.36
2017-12-03T01:00:23.379Z,101486.70
2017-12-03T01:01:29.075Z,101483.20
2017-12-03T01:02:34.695Z,101481.03
2017-12-03T01:03:40.416Z,101481.48
2017-12-03T01:04:52.231Z,101480.14
2017-12-03T01:05:57.878Z,101489.23
2017-12-03T01:07:03.852Z,101480.20
2017-12-03T01:08:09.523Z,101483.23
2017-12-03T01:09:15.163Z,101482.36
2017-12-03T01:10:20.868Z,101479.80
2017-12-03T01:11:26.513Z,101484.09
2017-12-03T01:12:32.245Z,101481.91
2017-12-03T01:13:37.925Z,101483.16
2017-12-03T01:14:43.959Z,101489.21
2017-12-03T01:15:54.603Z,101485.27
2017-12-03T01:17:00.102Z,101488.33
2017-12-03T01:18:05.594Z,101488.70
2017-12-03T01:19:11.304Z,101489.10
2017-12-03T01:20:16.861Z,101480.53
2017-12-03T01:21:22.539Z,101478.84
2017-12-03T01:22:35.315Z,101488.74
2017-12-03T01:23:40.973Z,101475.84
2017-12-03T01:24:46.717Z,101486.61
2017-12-03T01:25:52.192Z,101484.01
2017-12-03T01:26:57.877Z,101481.35
2017-12-03T01:28:03.619Z,101481.79
2017-12-03T01:29:09.951Z,101486.50
2017-12-03T01:30:15.604Z,101478.35
2017-12-03T01:31:21.267Z,101480.06
2017-12-03T01:32:26.951Z,101478.77
2017-12-03T01:33:32.608Z,101473.07
2017-12-03T01:34:38.296Z,101473.58
2017-12-03T01:35:43.967Z,101483.41
2017-12-03T01:36:49.656Z,101475.19
2017-12-03T01:37:55.308Z,101469.58
2017-12-03T01:39:00.943Z,101476.03
2017-12-03T01:40:07.423Z,101472.59
2017-12-03T01:41:13.168Z,101463.95
2017-12-03T01:42:20.355Z,101460.87
2017-12-03T01:43:26.055Z,101461.70
2017-12-03T01:44:31.376Z,101461.74
2017-12-03T01:45:36.760Z,101463.47
2017-12-03T01:46:42.436Z,101462.57
2017-12-03T01:47:48.159Z,101464.30
2017-12-03T01:48:53.802Z,101461.69
2017-12-03T01:50:00.824Z,101455.70
2017-12-03T01:51:05.871Z,101453.06
2017-12-03T01:52:11.350Z,101458.28
2017-12-03T01:53:17.022Z,101466.02
2017-12-03T01:54:22.699Z,101468.09
2017-12-03T01:55:33.757Z,101467.25
2017-12-03T01:56:42.101Z,101463.76
2017-12-03T01:57:47.774Z,101468.79
2017-12-03T01:58:53.280Z,101471.39
2017-12-03T01:59:58.998Z,101465.75
2017-12-03T02:01:04.381Z,101466.22
2017-12-03T02:02:09.515Z,101467.08
2017-12-03T02:03:14.621Z,101474.02
2017-12-03T02:04:20.290Z,101469.24
2017-12-03T02:05:25.256Z,101471.80
2017-12-03T02:06:30.038Z,101472.64
2017-12-03T02:07:35.039Z,101468.84
2017-12-03T02:08:39.811Z,101469.33
2017-12-03T02:09:45.514Z,101467.98
2017-12-03T02:10:51.215Z,101468.85
2017-12-03T02:11:56.850Z,101464.02
2017-12-03T02:13:02.498Z,101464.84
2017-12-03T02:14:08.147Z,101466.20
2017-12-03T02:15:13.461Z,101464.02
2017-12-03T02:16:19.180Z,101467.45
2017-12-03T02:17:24.916Z,101463.95
2017-12-03T02:18:30.604Z,101463.12
2017-12-03T02:19:35.601Z,101464.43
2017-12-03T02:20:40.623Z,101465.23
2017-12-03T02:21:45.390Z,101463.47
2017-12-03T02:22:50.403Z,101465.73
2017-12-03T02:23:56.079Z,101458.88
2017-12-03T02:25:02.119Z,101462.81
2017-12-03T02:26:07.767Z,101461.08
2017-12-03T02:27:13.471Z,101463.17
2017-12-03T02:28:19.115Z,101464.08
2017-12-03T02:29:25.488Z,101468.05
2017-12-03T02:30:31.164Z,101465.00
2017-12-03T02:31:36.784Z,101469.30
2017-12-03T02:32:42.481Z,101462.03
2017-12-03T02:33:48.113Z,101464.23
2017-12-03T02:34:53.791Z,101462.55
2017-12-03T02:36:04.511Z,101453.57
2017-12-03T02:37:10.179Z,101452.80
2017-12-03T02:38:15.805Z,101453.58
2017-12-03T02:39:21.447Z,101450.95
2017-12-03T02:40:27.117Z,101453.96
2017-12-03T02:41:32.820Z,101454.36
2017-12-03T02:42:38.490Z,101453.55
2017-12-03T02:43:44.139Z,101451.86
2017-12-03T02:44:50.518Z,101447.11
2017-12-03T02:45:57.008Z,101450.64
2017-12-03T02:47:03.731Z,101444.14
2017-12-03T02:48:09.800Z,101447.15
2017-12-03T02:49:15.491Z,101446.27
2017-12-03T02:50:20.826Z,101449.75
2017-12-03T02:51:26.520Z,101445.90
2017-12-03T02:52:32.164Z,101449.76
2017-12-03T02:53:37.881Z,101442.50
2017-12-03T02:54:43.215Z,101444.66
2017-12-03T02:55:48.930Z,101439.52
2017-12-03T02:56:54.721Z,101438.59
2017-12-03T02:58:01.096Z,101444.18
2017-12-03T02:59:06.060Z,101443.72
2017-12-03T03:00:11.408Z,101438.52
2017-12-03T03:01:17.641Z,101440.29
2017-12-03T03:02:23.368Z,101439.42
2017-12-03T03:03:29.000Z,101438.98
2017-12-03T03:04:34.661Z,101429.59
2017-12-03T03:05:40.337Z,101431.77
2017-12-03T03:06:46.063Z,101433.53
2017-12-03T03:07:51.733Z,101433.52
2017-12-03T03:08:57.024Z,101428.31
2017-12-03T03:10:02.674Z,101431.33
2017-12-03T03:11:09.265Z,101430.11
2017-12-03T03:12:15.058Z,101421.43
2017-12-03T03:13:20.388Z,101425.30
2017-12-03T03:14:25.711Z,101429.15
2017-12-03T03:15:31.038Z,101425.70
2017-12-03T03:16:36.691Z,101428.73
2017-12-03T03:17:42.369Z,101426.07
2017-12-03T03:18:48.067Z,101425.58
2017-12-03T03:19:53.448Z,101423.47
2017-12-03T03:21:00.045Z,101423.84
2017-12-03T03:22:08.316Z,101426.92
2017-12-03T03:23:14.039Z,101422.16
2017-12-03T03:24:19.680Z,101416.62
2017-12-03T03:25:25.438Z,101418.70
2017-12-03T03:26:31.365Z,101419.57
2017-12-03T03:27:37.008Z,101419.06
2017-12-03T03:28:42.857Z,101417.34
2017-12-03T03:29:48.264Z,101415.61
2017-12-03T03:30:54.799Z,101420.86
2017-12-03T03:32:00.111Z,101416.55
2017-12-03T03:33:05.715Z,101417.74
2017-12-03T03:34:11.507Z,101412.06
2017-12-03T03:35:16.552Z,101415.92
2017-12-03T03:36:21.887Z,101417.66
2017-12-03T03:37:26.880Z,101409.44
2017-12-03T03:38:32.241Z,101403.39
2017-12-03T03:39:37.669Z,101405.18
2017-12-03T03:40:43.464Z,101408.55
2017-12-03T03:41:48.821Z,101402.89
2017-12-03T03:42:54.147Z,101402.80
2017-12-03T03:43:59.783Z,101403.22
2017-12-03T03:45:05.503Z,101402.86
2017-12-03T03:46:11.204Z,101405.48
2017-12-03T03:47:16.890Z,101404.53
2017-12-03T03:48:22.687Z,101402.42
2017-12-03T03:49:28.354Z,101399.84
2017-12-03T03:50:34.083Z,101398.88
2017-12-03T03:51:40.378Z,101403.64
2017-12-03T03:52:46.021Z,101403.16
2017-12-03T03:53:51.697Z,101406.59
2017-12-03T03:54:57.012Z,101400.58
2017-12-03T03:56:02.072Z,101399.27
2017-12-03T03:57:07.007Z,101391.97
2017-12-03T03:58:12.343Z,101394.54
2017-12-03T03:59:19.090Z,101396.63
2017-12-03T04:00:24.122Z,101404.85
2017-12-03T04:01:29.284Z,101401.34
2017-12-03T04:02:34.314Z,101401.78
2017-12-03T04:03:39.400Z,101398.73
2017-12-03T04:04:44.845Z,101400.89
2017-12-03T04:05:50.626Z,101392.70
2017-12-03T04:06:57.148Z,101396.59
2017-12-03T04:08:02.811Z,101396.69
2017-12-03T04:09:11.191Z,101389.33
2017-12-03T04:10:16.948Z,101390.20
2017-12-03T04:11:22.886Z,101385.13
2017-12-03T04:12:27.902Z,101394.96
2017-12-03T04:13:35.026Z,101386.37
2017-12-03T04:14:40.738Z,101388.89
2017-12-03T04:15:46.525Z,101388.48
2017-12-03T04:16:52.066Z,101390.68
2017-12-03T04:17:58.256Z,101384.56
2017-12-03T04:19:04.895Z,101390.57
2017-12-03T04:20:10.547Z,101382.85
2017-12-03T04:21:16.284Z,101387.58
2017-12-03T04:22:21.743Z,101383.61
2017-12-03T04:23:27.428Z,101388.72
2017-12-03T04:24:33.305Z,101386.12
2017-12-03T04:25:38.852Z,101391.67
2017-12-03T04:26:44.487Z,101390.34
2017-12-03T04:27:50.028Z,101392.09
2017-12-03T04:28:55.702Z,101397.27
2017-12-03T04:30:01.485Z,101389.06
2017-12-03T04:31:07.242Z,101390.69
2017-12-03T04:32:13.358Z,101386.41
2017-12-03T04:33:20.397Z,101387.22
2017-12-03T04:34:27.523Z,101392.30
2017-12-03T04:35:34.482Z,101384.65
2017-12-03T04:36:40.846Z,101387.78
2017-12-03T04:37:47.720Z,101387.31
2017-12-03T04:38:54.044Z,101386.80
2017-12-03T04:40:01.472Z,101384.55
2017-12-03T04:41:08.123Z,101387.63
2017-12-03T04:42:23.081Z,101388.88
2017-12-03T04:43:30.021Z,101389.26
2017-12-03T04:44:40.162Z,101386.24
2017-12-03T04:45:46.928Z,101390.11
2017-12-03T04:46:54.453Z,101388.34
2017-12-03T04:48:02.123Z,101384.86
2017-12-03T04:49:08.887Z,101386.24
2017-12-03T04:50:15.938Z,101384.50
2017-12-03T04:51:22.830Z,101381.44
2017-12-03T04:52:29.471Z,101382.70
2017-12-03T04:53:35.978Z,101379.28
2017-12-03T04:54:42.593Z,101384.34
2017-12-03T04:55:49.625Z,101386.41
2017-12-03T04:56:56.735Z,101382.52
2017-12-03T04:58:04.183Z,101383.41
2017-12-03T04:59:11.118Z,101382.14
2017-12-03T05:00:17.468Z,101386.03
2017-12-03T05:01:24.226Z,101381.70
2017-12-03T05:02:30.605Z,101384.83
2017-12-03T05:03:37.696Z,101384.75
2017-12-03T05:04:44.122Z,101379.94
2017-12-03T05:05:51.796Z,101384.16
2017-12-03T05:06:58.180Z,101377.75
2017-12-03T05:08:04.816Z,101374.41
2017-12-03T05:09:12.180Z,101371.90
2017-12-03T05:10:19.693Z,101380.06
2017-12-03T05:11:26.410Z,101370.95
2017-12-03T05:12:33.495Z,101375.13
2017-12-03T05:13:46.250Z,101366.46
2017-12-03T05:14:59.932Z,101366.52
2017-12-03T05:16:08.588Z,101373.88
2017-12-03T05:17:14.432Z,101368.22
2017-12-03T05:18:19.839Z,101369.11
2017-12-03T05:19:27.223Z,101368.22
2017-12-03T05:20:35.196Z,101367.73
2017-12-03T05:21:41.631Z,101369.31
2017-12-03T05:22:48.201Z,101366.77
2017-12-03T05:23:54.776Z,101367.14
2017-12-03T05:25:01.009Z,101365.76
2017-12-03T05:26:08.137Z,101366.63
2017-12-03T05:27:14.046Z,101367.58
2017-12-03T05:28:20.295Z,101357.26
2017-12-03T05:29:32.162Z,101362.36
2017-12-03T05:30:39.636Z,101359.74
2017-12-03T05:31:45.946Z,101360.31
2017-12-03T05:32:55.025Z,101356.84
2017-12-03T05:34:00.612Z,101361.51
2017-12-03T05:35:16.375Z,101357.63
2017-12-03T05:36:24.215Z,101356.73
2017-12-03T05:37:41.615Z,101350.66
2017-12-03T05:38:48.753Z,101352.45
2017-12-03T05:39:56.642Z,101358.95
2017-12-03T05:41:03.979Z,101349.13
2017-12-03T05:42:11.177Z,101357.27
2017-12-03T05:43:18.040Z,101357.20
2017-12-03T05:44:25.083Z,101360.65
2017-12-03T05:45:30.925Z,101358.53
2017-12-03T05:46:41.723Z,101352.98
2017-12-03T05:47:48.118Z,101356.50
2017-12-03T05:48:54.522Z,101356.02
2017-12-03T05:50:01.833Z,101354.34
2017-12-03T05:51:06.807Z,101347.78
2017-12-03T05:52:11.851Z,101355.56
2017-12-03T05:53:17.766Z,101353.88
2017-12-03T05:54:22.824Z,101351.31
2017-12-03T05:55:27.860Z,101352.24
2017-12-03T05:56:32.881Z,101354.79
2017-12-03T05:57:37.868Z,101347.38
2017-12-03T05:58:42.832Z,101348.59
2017-12-03T05:59:47.852Z,101346.88
2017-12-03T06:00:52.887Z,101343.06
2017-12-03T06:01:57.852Z,101348.64
2017-12-03T06:03:03.155Z,101350.77
2017-12-03T06:04:08.445Z,101345.05
2017-12-03T06:05:13.487Z,101342.83
2017-12-03T06:06:18.611Z,101341.92
2017-12-03T06:07:23.963Z,101344.58
2017-12-03T06:08:28.751Z,101340.17
2017-12-03T06:09:33.740Z,101340.25
2017-12-03T06:10:38.735Z,101341.20
2017-12-03T06:11:44.157Z,101337.22
2017-12-03T06:12:49.547Z,101339.97
2017-12-03T06:13:54.519Z,101336.81
2017-12-03T06:14:59.536Z,101343.28
2017-12-03T06:16:04.573Z,101339.77
2017-12-03T06:17:09.704Z,101338.37
2017-12-03T06:18:15.608Z,101339.05
2017-12-03T06:19:20.594Z,101339.13
2017-12-03T06:20:26.359Z,101332.81
2017-12-03T06:21:31.172Z,101331.87
2017-12-03T06:22:36.131Z,101331.39
2017-12-03T06:23:42.347Z,101328.72
2017-12-03T06:24:49.506Z,101334.29
2017-12-03T06:25:54.556Z,101325.73
2017-12-03T06:26:59.535Z,101331.73
2017-12-03T06:28:04.528Z,101330.40
2017-12-03T06:29:10.049Z,101331.25
2017-12-03T06:30:15.415Z,101328.84
2017-12-03T06:31:20.431Z,101328.56
2017-12-03T06:32:25.475Z,101327.63
2017-12-03T06:33:30.468Z,101320.42
2017-12-03T06:34:35.547Z,101325.16
2017-12-03T06:35:40.906Z,101329.47
2017-12-03T06:36:45.900Z,101332.93
2017-12-03T06:37:50.922Z,101336.81
2017-12-03T06:38:56.238Z,101336.81
2017-12-03T06:40:01.264Z,101329.44
2017-12-03T06:41:06.252Z,101335.45
2017-12-03T06:42:11.660Z,101338.92
2017-12-03T06:43:21.387Z,101333.36
2017-12-03T06:44:26.347Z,101334.31
2017-12-03T06:45:31.441Z,101339.91
2017-12-03T06:46:36.468Z,101334.63
2017-12-03T06:47:41.484Z,101335.14
2017-12-03T06:48:46.452Z,101338.05
2017-12-03T06:49:51.810Z,101339.77
2017-12-03T06:50:56.784Z,101335.92
2017-12-03T06:52:01.799Z,101338.56
2017-12-03T06:53:06.869Z,101337.14
2017-12-03T06:54:11.855Z,101335.11
2017-12-03T06:55:16.848Z,101334.22
2017-12-03T06:56:21.943Z,101331.06
2017-12-03T06:57:26.923Z,101329.27
2017-12-03T06:58:32.248Z,101330.16
2017-12-03T06:59:37.268Z,101328.86
2017-12-03T07:00:42.378Z,101328.54
2017-12-03T07:01:47.805Z,101328.13
2017-12-03T07:02:53.589Z,101334.20
2017-12-03T07:03:59.292Z,101332.89
2017-12-03T07:05:09.150Z,101332.05
2017-12-03T07:06:14.091Z,101332.45
2017-12-03T07:07:19.372Z,101333.69
2017-12-03T07:08:31.249Z,101333.30
2017-12-03T07:09:36.458Z,101337.53
2017-12-03T07:10:41.480Z,101333.73
2017-12-03T07:11:47.155Z,101326.81
2017-12-03T07:12:52.254Z,101328.62
2017-12-03T07:13:57.243Z,101327.82
2017-12-03T07:15:03.165Z,101333.88
2017-12-03T07:16:08.172Z,101335.61
2017-12-03T07:17:17.690Z,101331.28
2017-12-03T07:18:22.798Z,101326.13
2017-12-03T07:19:28.152Z,101328.23
2017-12-03T07:20:33.290Z,101329.16
2017-12-03T07:21:38.320Z,101331.31
2017-12-03T07:22:43.346Z,101331.75
2017-12-03T07:23:48.359Z,101337.86
2017-12-03T07:24:53.446Z,101328.47
2017-12-03T07:25:59.443Z,101324.65
2017-12-03T07:27:04.514Z,101319.48
2017-12-03T07:28:09.456Z,101328.06
2017-12-03T07:29:14.782Z,101325.48
2017-12-03T07:30:19.786Z,101320.84
2017-12-03T07:31:24.968Z,101326.08
2017-12-03T07:32:31.339Z,101323.19
2017-12-03T07:33:36.135Z,101320.60
2017-12-03T07:34:40.972Z,101323.15
2017-12-03T07:35:46.234Z,101323.13
2017-12-03T07:36:51.947Z,101322.31
2017-12-03T07:38:00.912Z,101325.78
2017-12-03T07:39:06.337Z,101329.29
2017-12-03T07:40:11.830Z,101330.59
2017-12-03T07:41:16.703Z,101328.92
2017-12-03T07:42:21.569Z,101335.88
2017-12-03T07:43:27.006Z,101333.38
2017-12-03T07:44:32.513Z,101330.92
2017-12-03T07:45:38.704Z,101337.48
2017-12-03T07:46:43.951Z,101336.72
2017-12-03T07:47:48.943Z,101337.94
2017-12-03T07:48:53.747Z,101341.89
2017-12-03T07:49:59.120Z,101343.25
2017-12-03T07:51:04.130Z,101332.95
2017-12-03T07:52:09.528Z,101339.91
2017-12-03T07:53:15.520Z,101338.16
2017-12-03T07:54:20.641Z,101337.30
2017-12-03T07:55:25.664Z,101338.13
2017-12-03T07:56:31.117Z,101333.45
2017-12-03T07:57:36.087Z,101340.81
2017-12-03T07:58:41.094Z,101336.46
2017-12-03T07:59:46.108Z,101330.48
2017-12-03T08:00:51.140Z,101333.51
2017-12-03T08:01:57.300Z,101339.92
2017-12-03T08:03:02.729Z,101339.00
2017-12-03T08:04:07.804Z,101348.06
2017-12-03T08:05:12.872Z,101343.39
2017-12-03T08:06:17.918Z,101341.73
2017-12-03T08:07:22.885Z,101343.11
2017-12-03T08:08:28.638Z,101345.73
2017-12-03T08:09:33.671Z,101343.52
2017-12-03T08:10:38.667Z,101339.71
2017-12-03T08:11:43.458Z,101340.14
2017-12-03T08:12:49.096Z,101343.66
2017-12-03T08:13:54.108Z,101341.98
2017-12-03T08:14:59.093Z,101337.67
2017-12-03T08:16:05.035Z,101336.73
2017-12-03T08:17:09.987Z,101342.39
2017-12-03T08:18:15.011Z,101338.47
2017-12-03T08:19:19.984Z,101343.17
2017-12-03T08:20:26.028Z,101344.08
2017-12-03T08:21:32.371Z,101347.96
2017-12-03T08:22:37.403Z,101345.83
2017-12-03T08:23:42.430Z,101347.52
2017-12-03T08:24:47.563Z,101348.39
2017-12-03T08:25:52.590Z,101350.57
2017-12-03T08:26:57.751Z,101355.64
2017-12-03T08:28:03.116Z,101351.78
2017-12-03T08:29:08.897Z,101349.63
2017-12-03T08:30:13.873Z,101347.48
2017-12-03T08:31:18.903Z,101349.58
2017-12-03T08:32:23.975Z,101350.05
2017-12-03T08:33:29.326Z,101351.72
2017-12-03T08:34:34.311Z,101353.04
2017-12-03T08:35:39.311Z,101349.59
2017-12-03T08:36:44.674Z,101351.70
2017-12-03T08:37:49.685Z,101347.45
2017-12-03T08:38:55.087Z,101352.11
2017-12-03T08:40:00.111Z,101356.50
2017-12-03T08:41:05.126Z,101355.16
2017-12-03T08:42:10.076Z,101350.84
2017-12-03T08:43:15.103Z,101351.19
2017-12-03T08:44:20.178Z,101350.82
2017-12-03T08:45:25.242Z,101345.27
2017-12-03T08:46:31.087Z,101349.63
2017-12-03T08:47:36.412Z,101348.70
2017-12-03T08:48:41.361Z,101340.51
2017-12-03T08:49:46.378Z,101343.13
2017-12-03T08:50:51.402Z,101347.37
2017-12-03T08:51:56.358Z,101346.94
2017-12-03T08:53:01.656Z,101341.69
2017-12-03T08:54:06.678Z,101352.46
2017-12-03T08:55:11.719Z,101350.70
2017-12-03T08:56:19.987Z,101354.59
2017-12-03T08:57:25.003Z,101353.30
2017-12-03T08:58:30.348Z,101355.84
2017-12-03T08:59:35.374Z,101357.09
2017-12-03T09:00:40.383Z,101355.03
2017-12-03T09:01:45.357Z,101356.20
2017-12-03T09:02:50.373Z,101352.74
2017-12-03T09:03:55.374Z,101355.65
2017-12-03T09:05:00.431Z,101350.08
2017-12-03T09:06:05.421Z,101356.17
2017-12-03T09:07:10.744Z,101357.91
2017-12-03T09:08:15.788Z,101352.36
2017-12-03T09:09:20.766Z,101353.63
2017-12-03T09:10:26.673Z,101356.59
2017-12-03T09:11:31.624Z,101355.78
2017-12-03T09:12:38.284Z,101351.44
2017-12-03T09:13:43.396Z,101351.87
2017-12-03T09:14:48.473Z,101356.64
2017-12-03T09:15:53.891Z,101356.66
2017-12-03T09:16:59.832Z,101352.33
2017-12-03T09:18:04.807Z,101361.73
2017-12-03T09:19:09.796Z,101353.94
2017-12-03T09:20:14.838Z,101362.63
2017-12-03T09:21:19.991Z,101355.26
2017-12-03T09:22:25.311Z,101355.27
2017-12-03T09:23:30.307Z,101352.67
2017-12-03T09:24:35.354Z,101352.22
2017-12-03T09:25:40.321Z,101354.78
2017-12-03T09:26:45.656Z,101351.23
2017-12-03T09:27:50.562Z,101349.13
2017-12-03T09:28:55.425Z,101342.63
2017-12-03T09:30:00.664Z,101347.78
2017-12-03T09:31:05.666Z,101349.89
2017-12-03T09:32:10.946Z,101346.49
2017-12-03T09:33:16.431Z,101339.09
2017-12-03T09:34:21.428Z,101338.23
2017-12-03T09:35:26.277Z,101345.66
2017-12-03T09:36:31.681Z,101345.66
2017-12-03T09:37:36.706Z,101345.16
2017-12-03T09:38:41.709Z,101345.57
2017-12-03T09:39:46.780Z,101341.35
2017-12-03T09:40:51.808Z,101346.89
2017-12-03T09:41:56.791Z,101344.33
2017-12-03T09:43:02.583Z,101345.65
2017-12-03T09:44:07.619Z,101343.81
2017-12-03T09:45:13.162Z,101338.33
2017-12-03T09:46:18.597Z,101342.18
2017-12-03T09:47:24.088Z,101338.27
2017-12-03T09:48:29.126Z,101341.76
2017-12-03T09:49:34.461Z,101339.63
2017-12-03T09:50:39.552Z,101339.95
2017-12-03T09:51:44.594Z,101336.09
2017-12-03T09:52:50.880Z,101332.79
2017-12-03T09:53:58.677Z,101332.80
2017-12-03T09:55:04.227Z,101327.20
2017-12-03T09:56:09.706Z,101334.92
2017-12-03T09:57:15.243Z,101328.94
2017-12-03T09:58:21.322Z,101328.95
2017-12-03T09:59:26.773Z,101322.45
2017-12-03T10:00:33.033Z,101326.82
2017-12-03T10:01:38.098Z,101320.78
2017-12-03T10:02:43.170Z,101317.35
2017-12-03T10:03:48.211Z,101322.16
2017-12-03T10:04:53.268Z,101313.07
2017-12-03T10:05:58.632Z,101312.66
2017-12-03T10:07:03.723Z,101312.20
2017-12-03T10:08:08.818Z,101315.59
2017-12-03T10:09:13.817Z,101303.09
2017-12-03T10:10:18.961Z,101303.04
2017-12-03T10:11:24.354Z,101297.86
2017-12-03T10:12:33.318Z,101301.37
2017-12-03T10:13:40.502Z,101299.31
2017-12-03T10:14:47.031Z,101295.83
2017-12-03T10:15:53.361Z,101294.52
2017-12-03T10:16:58.974Z,101293.62
2017-12-03T10:18:04.423Z,101297.06
2017-12-03T10:19:10.657Z,101297.09
2017-12-03T10:20:18.179Z,101293.61
2017-12-03T10:21:24.689Z,101294.03
2017-12-03T10:22:30.830Z,101295.68
2017-12-03T10:23:37.482Z,101284.13
2017-12-03T10:24:42.990Z,101288.42
2017-12-03T10:25:49.526Z,101285.38
2017-12-03T10:26:56.839Z,101278.94
2017-12-03T10:28:01.932Z,101285.75
2017-12-03T10:29:07.563Z,101283.52
2017-12-03T10:30:14.417Z,101290.89
2017-12-03T10:31:20.623Z,101283.98
2017-12-03T10:32:27.103Z,101282.30
2017-12-03T10:33:34.355Z,101280.15
2017-12-03T10:34:41.397Z,101278.42
2017-12-03T10:35:47.820Z,101282.36
2017-12-03T10:36:53.518Z,101283.17
2017-12-03T10:38:08.861Z,101279.73
2017-12-03T10:39:16.816Z,101278.06
2017-12-03T10:40:23.682Z,101275.05
2017-12-03T10:41:29.730Z,101276.78
2017-12-03T10:42:36.245Z,101279.41
2017-12-03T10:43:43.605Z,101278.61
2017-12-03T10:44:50.006Z,101279.84
2017-12-03T10:45:57.445Z,101272.16
2017-12-03T10:47:04.095Z,101269.12
2017-12-03T10:48:11.849Z,101262.61
2017-12-03T10:49:18.364Z,101265.23
2017-12-03T10:50:25.038Z,101263.44
2017-12-03T10:51:31.810Z,101261.27
2017-12-03T10:52:38.295Z,101253.91
2017-12-03T10:53:44.867Z,101260.48
2017-12-03T10:54:51.598Z,101255.33
2017-12-03T10:55:57.871Z,101259.23
2017-12-03T10:57:04.802Z,101259.73
2017-12-03T10:58:12.392Z,101254.47
2017-12-03T10:59:19.450Z,101252.29
2017-12-03T11:00:27.359Z,101256.97
2017-12-03T11:01:34.223Z,101254.37
2017-12-03T11:02:40.595Z,101254.44
2017-12-03T11:03:47.107Z,101248.43
2017-12-03T11:04:54.301Z,101243.23
2017-12-03T11:06:01.819Z,101238.04
2017-12-03T11:07:09.230Z,101241.00
2017-12-03T11:08:16.674Z,101241.45
2017-12-03T11:09:23.300Z,101240.61
2017-12-03T11:10:30.781Z,101240.92
2017-12-03T11:11:37.701Z,101234.00
2017-12-03T11:12:44.360Z,101231.87
2017-12-03T11:13:51.440Z,101228.03
2017-12-03T11:14:59.121Z,101220.33
2017-12-03T11:16:05.652Z,101225.91
2017-12-03T11:17:18.602Z,101219.84
2017-12-03T11:18:25.498Z,101221.59
2017-12-03T11:19:33.163Z,101215.17
2017-12-03T11:20:40.848Z,101226.77
2017-12-03T11:21:49.721Z,101219.05
2017-12-03T11:22:58.346Z,101216.53
2017-12-03T11:24:05.574Z,101212.22
2017-12-03T11:25:12.470Z,101209.23
2017-12-03T11:26:19.356Z,101207.03
2017-12-03T11:27:26.895Z,101207.86
2017-12-03T11:28:33.151Z,101212.27
2017-12-03T11:29:38.707Z,101208.32
2017-12-03T11:30:44.520Z,101199.29
2017-12-03T11:31:50.043Z,101208.80
2017-12-03T11:33:00.194Z,101198.84
2017-12-03T11:34:06.189Z,101195.02
2017-12-03T11:35:11.572Z,101194.98
2017-12-03T11:36:17.357Z,101190.25
2017-12-03T11:37:22.878Z,101194.19
2017-12-03T11:38:28.614Z,101182.50
2017-12-03T11:39:34.322Z,101187.30
2017-12-03T11:40:40.583Z,101175.30
2017-12-03T11:41:47.108Z,101176.63
2017-12-03T11:42:53.015Z,101175.77
2017-12-03T11:43:58.851Z,101176.53
2017-12-03T11:45:04.663Z,101171.81
2017-12-03T11:46:10.715Z,101171.40
2017-12-03T11:47:16.464Z,101168.41
2017-12-03T11:48:22.360Z,101167.52
2017-12-03T11:49:28.160Z,101167.07
2017-12-03T11:50:34.549Z,101175.66
2017-12-03T11:51:40.372Z,101165.37
2017-12-03T11:52:46.146Z,101164.47
2017-12-03T11:53:51.958Z,101167.03
2017-12-03T11:54:57.780Z,101161.47
2017-12-03T11:56:03.540Z,101163.11
2017-12-03T11:57:09.884Z,101164.00
2017-12-03T11:58:15.637Z,101165.75
2017-12-03T11:59:21.361Z,101163.66
2017-12-03T12:00:30.133Z,101161.47
2017-12-03T12:01:35.875Z,101160.59
2017-12-03T12:02:41.668Z,101157.98
2017-12-03T12:03:47.443Z,101158.45
2017-12-03T12:04:53.351Z,101159.75
2017-12-03T12:05:59.140Z,101160.64
2017-12-03T12:07:04.941Z,101152.45
2017-12-03T12:08:10.728Z,101148.58
2017-12-03T12:09:16.434Z,101146.39
2017-12-03T12:10:22.177Z,101145.96
2017-12-03T12:11:27.905Z,101139.95
2017-12-03T12:12:33.682Z,101142.16
2017-12-03T12:13:39.458Z,101140.48
2017-12-03T12:14:45.629Z,101141.31
2017-12-03T12:15:51.493Z,101138.69
2017-12-03T12:16:57.702Z,101139.60
2017-12-03T12:18:03.514Z,101134.00
2017-12-03T12:19:09.248Z,101132.25
2017-12-03T12:20:15.237Z,101133.13
2017-12-03T12:21:21.292Z,101129.63
2017-12-03T12:22:27.124Z,101129.22
2017-12-03T12:23:32.979Z,101131.79
2017-12-03T12:24:38.753Z,101120.16
2017-12-03T12:25:44.275Z,101122.78
2017-12-03T12:26:50.022Z,101128.84
2017-12-03T12:27:56.055Z,101126.24
2017-12-03T12:29:01.666Z,101124.05
2017-12-03T12:30:07.418Z,101125.38
2017-12-03T12:31:13.250Z,101125.39
2017-12-03T12:32:19.050Z,101130.55
2017-12-03T12:33:24.789Z,101125.37